AMX256 MMMX-MMOX
Flight info
| Callsign | AMX256 |
|---|---|
| Flight time | 0h 40m |
| Altitude | 33000 |
| Route | TEVOS2B TEVOS UT113 OAX DCT |
| Aircraft | E190/M-SDE3GILORVW/S |
Departure
| Time | 2026-04-22 10:07 |
|---|---|
| Airport | Mexico City Benito Juárez International Airport (MMMX) |
Arrival
| Time | 2026-04-22 10:47 |
|---|---|
| Airport | Xoxocotlán International Airport (MMOX) |
| Time | Latitude | Longitude | Altitude | Speed | Heading |
|---|---|---|---|---|---|
| 2026-04-22 09:57 | 19.43586 | -99.07994 | 7301 ft | 3 kts | 329° |
| 2026-04-22 09:58 | 19.43567 | -99.07983 | 7301 ft | 4 kts | 331° |
| 2026-04-22 09:58 | 19.43543 | -99.07970 | 7301 ft | 4 kts | 338° |
| 2026-04-22 09:59 | 19.43518 | -99.07962 | 7301 ft | 4 kts | 0° |
| 2026-04-22 09:59 | 19.43498 | -99.07967 | 7301 ft | 2 kts | 59° |
| 2026-04-22 09:59 | 19.43497 | -99.07968 | 7301 ft | 3 kts | 59° |
| 2026-04-22 10:02 | 19.43500 | -99.07963 | 7301 ft | 3 kts | 59° |
| 2026-04-22 10:02 | 19.43520 | -99.07927 | 7301 ft | 9 kts | 60° |
| 2026-04-22 10:02 | 19.43564 | -99.07848 | 7301 ft | 16 kts | 58° |
| 2026-04-22 10:02 | 19.43632 | -99.07728 | 7301 ft | 22 kts | 59° |
| 2026-04-22 10:03 | 19.43719 | -99.07572 | 7301 ft | 26 kts | 59° |
| 2026-04-22 10:03 | 19.43810 | -99.07411 | 7301 ft | 25 kts | 59° |
| 2026-04-22 10:03 | 19.43899 | -99.07252 | 7301 ft | 25 kts | 58° |
| 2026-04-22 10:03 | 19.43988 | -99.07094 | 7302 ft | 25 kts | 59° |
| 2026-04-22 10:04 | 19.44073 | -99.06939 | 7301 ft | 24 kts | 58° |
| 2026-04-22 10:04 | 19.44067 | -99.06865 | 7301 ft | 7 kts | 148° |
| 2026-04-22 10:04 | 19.44008 | -99.06827 | 7303 ft | 13 kts | 150° |
| 2026-04-22 10:04 | 19.43962 | -99.06723 | 7301 ft | 20 kts | 88° |
| 2026-04-22 10:05 | 19.43964 | -99.06554 | 7301 ft | 24 kts | 89° |
| 2026-04-22 10:05 | 19.43969 | -99.06384 | 7301 ft | 16 kts | 88° |
| 2026-04-22 10:05 | 19.43958 | -99.06358 | 7300 ft | 0 kts | 179° |
| 2026-04-22 10:05 | 19.43957 | -99.06359 | 7300 ft | 0 kts | 184° |
| 2026-04-22 10:06 | 19.43935 | -99.06384 | 7301 ft | 10 kts | 238° |
| 2026-04-22 10:06 | 19.43806 | -99.06615 | 7301 ft | 70 kts | 239° |
| 2026-04-22 10:06 | 19.43444 | -99.07260 | 7301 ft | 132 kts | 239° |
| 2026-04-22 10:06 | 19.42904 | -99.08253 | 7458 ft | 171 kts | 240° |
| 2026-04-22 10:07 | 19.42265 | -99.09371 | 8164 ft | 180 kts | 239° |
| 2026-04-22 10:07 | 19.41590 | -99.10493 | 8996 ft | 182 kts | 238° |
| 2026-04-22 10:07 | 19.40851 | -99.11664 | 9596 ft | 201 kts | 231° |
| 2026-04-22 10:07 | 19.39637 | -99.12503 | 10071 ft | 223 kts | 192° |
| 2026-04-22 10:08 | 19.38060 | -99.12315 | 10616 ft | 241 kts | 159° |
| 2026-04-22 10:08 | 19.36561 | -99.11476 | 11144 ft | 259 kts | 142° |
| 2026-04-22 10:08 | 19.35230 | -99.10068 | 11487 ft | 282 kts | 129° |
| 2026-04-22 10:08 | 19.33877 | -99.08422 | 11696 ft | 309 kts | 132° |
| 2026-04-22 10:09 | 19.32379 | -99.06726 | 12234 ft | 319 kts | 132° |
| 2026-04-22 10:09 | 19.30774 | -99.05079 | 12854 ft | 325 kts | 143° |
| 2026-04-22 10:09 | 19.28715 | -99.03946 | 12973 ft | 342 kts | 156° |
| 2026-04-22 10:09 | 19.26641 | -99.02907 | 12947 ft | 314 kts | 152° |
| 2026-04-22 10:10 | 19.25391 | -99.02241 | 12908 ft | 294 kts | 153° |
| 2026-04-22 10:10 | 19.23645 | -99.01327 | 12971 ft | 266 kts | 153° |
| 2026-04-22 10:10 | 19.21975 | -99.00426 | 12981 ft | 281 kts | 152° |
| 2026-04-22 10:10 | 19.19497 | -98.99048 | 13506 ft | 319 kts | 152° |
| 2026-04-22 10:11 | 19.18155 | -98.98288 | 14055 ft | 328 kts | 151° |
| 2026-04-22 10:11 | 19.16098 | -98.97109 | 14886 ft | 342 kts | 152° |
| 2026-04-22 10:11 | 19.13981 | -98.95898 | 15865 ft | 350 kts | 152° |
| 2026-04-22 10:11 | 19.11853 | -98.94680 | 16850 ft | 356 kts | 152° |
| 2026-04-22 10:12 | 19.09657 | -98.93425 | 17794 ft | 361 kts | 152° |
| 2026-04-22 10:12 | 19.07431 | -98.92157 | 18686 ft | 366 kts | 152° |
| 2026-04-22 10:12 | 19.05172 | -98.90877 | 19534 ft | 370 kts | 152° |
| 2026-04-22 10:12 | 19.02894 | -98.89571 | 20311 ft | 375 kts | 151° |
| 2026-04-22 10:13 | 19.00617 | -98.88184 | 21086 ft | 380 kts | 150° |
| 2026-04-22 10:13 | 18.98315 | -98.86786 | 21839 ft | 384 kts | 150° |
| 2026-04-22 10:13 | 18.95975 | -98.85383 | 22540 ft | 388 kts | 153° |
| 2026-04-22 10:13 | 18.93396 | -98.84525 | 23168 ft | 392 kts | 175° |
| 2026-04-22 10:14 | 18.90674 | -98.84682 | 23843 ft | 394 kts | 188° |
| 2026-04-22 10:14 | 18.87991 | -98.85118 | 24456 ft | 397 kts | 189° |
| 2026-04-22 10:14 | 18.85241 | -98.85556 | 24997 ft | 401 kts | 189° |
| 2026-04-22 10:14 | 18.82469 | -98.86010 | 25540 ft | 404 kts | 190° |
| 2026-04-22 10:15 | 18.79674 | -98.86477 | 26071 ft | 408 kts | 190° |
| 2026-04-22 10:15 | 18.76856 | -98.86956 | 26592 ft | 412 kts | 190° |
| 2026-04-22 10:15 | 18.74018 | -98.87443 | 27116 ft | 415 kts | 190° |
| 2026-04-22 10:15 | 18.71152 | -98.87897 | 27625 ft | 418 kts | 190° |
| 2026-04-22 10:16 | 18.68271 | -98.88355 | 28109 ft | 420 kts | 190° |
| 2026-04-22 10:16 | 18.65368 | -98.88816 | 28567 ft | 423 kts | 190° |
| 2026-04-22 10:16 | 18.62449 | -98.89281 | 28987 ft | 426 kts | 190° |
| 2026-04-22 10:16 | 18.59514 | -98.89747 | 29397 ft | 428 kts | 190° |
| 2026-04-22 10:17 | 18.56562 | -98.90216 | 29785 ft | 430 kts | 190° |
| 2026-04-22 10:17 | 18.53594 | -98.90688 | 30152 ft | 432 kts | 191° |
| 2026-04-22 10:17 | 18.50647 | -98.91157 | 30521 ft | 434 kts | 191° |
| 2026-04-22 10:17 | 18.47649 | -98.91592 | 30885 ft | 437 kts | 186° |
| 2026-04-22 10:18 | 18.44596 | -98.91358 | 31202 ft | 444 kts | 167° |
| 2026-04-22 10:18 | 18.41772 | -98.90030 | 31553 ft | 450 kts | 147° |
| 2026-04-22 10:18 | 18.39498 | -98.87755 | 31865 ft | 455 kts | 129° |
| 2026-04-22 10:18 | 18.37662 | -98.85022 | 32178 ft | 457 kts | 126° |
| 2026-04-22 10:19 | 18.35850 | -98.82255 | 32418 ft | 460 kts | 126° |
| 2026-04-22 10:19 | 18.34036 | -98.79490 | 32784 ft | 459 kts | 126° |
| 2026-04-22 10:19 | 18.30410 | -98.73895 | 32867 ft | 471 kts | 126° |
| 2026-04-22 10:20 | 18.26691 | -98.68142 | 32886 ft | 477 kts | 126° |
| 2026-04-22 10:20 | 18.22941 | -98.62347 | 32902 ft | 480 kts | 126° |
| 2026-04-22 10:21 | 18.19174 | -98.56533 | 32912 ft | 481 kts | 126° |
| 2026-04-22 10:21 | 18.15402 | -98.50719 | 32904 ft | 482 kts | 126° |
| 2026-04-22 10:22 | 18.11679 | -98.44902 | 32866 ft | 482 kts | 125° |
| 2026-04-22 10:22 | 18.07951 | -98.39057 | 32857 ft | 481 kts | 125° |
| 2026-04-22 10:23 | 18.04223 | -98.33212 | 32897 ft | 481 kts | 125° |
| 2026-04-22 10:23 | 18.00490 | -98.27369 | 32921 ft | 480 kts | 125° |
| 2026-04-22 10:24 | 17.96753 | -98.21527 | 32946 ft | 477 kts | 125° |
| 2026-04-22 10:24 | 17.93023 | -98.15701 | 32782 ft | 481 kts | 126° |
| 2026-04-22 10:25 | 17.89301 | -98.09889 | 32804 ft | 483 kts | 126° |
| 2026-04-22 10:25 | 17.85571 | -98.04078 | 32958 ft | 477 kts | 125° |
| 2026-04-22 10:26 | 17.81863 | -97.98303 | 32831 ft | 477 kts | 125° |
| 2026-04-22 10:26 | 17.78134 | -97.92499 | 32834 ft | 480 kts | 126° |
| 2026-04-22 10:27 | 17.74394 | -97.86685 | 32826 ft | 481 kts | 126° |
| 2026-04-22 10:27 | 17.70643 | -97.80858 | 32807 ft | 482 kts | 126° |
| 2026-04-22 10:28 | 17.66780 | -97.75139 | 32842 ft | 480 kts | 128° |
| 2026-04-22 10:28 | 17.62792 | -97.69504 | 32806 ft | 480 kts | 128° |
| 2026-04-22 10:29 | 17.60802 | -97.66695 | 32698 ft | 483 kts | 128° |
| 2026-04-22 10:29 | 17.58840 | -97.63914 | 32440 ft | 467 kts | 128° |
| 2026-04-22 10:29 | 17.56952 | -97.61244 | 31989 ft | 457 kts | 128° |
| 2026-04-22 10:29 | 17.55071 | -97.58581 | 31317 ft | 452 kts | 128° |
| 2026-04-22 10:30 | 17.53217 | -97.55951 | 30712 ft | 446 kts | 128° |
| 2026-04-22 10:30 | 17.51382 | -97.53354 | 30109 ft | 440 kts | 127° |
| 2026-04-22 10:30 | 17.49548 | -97.50756 | 29504 ft | 437 kts | 127° |
| 2026-04-22 10:30 | 17.47769 | -97.48237 | 28936 ft | 434 kts | 127° |
| 2026-04-22 10:31 | 17.45975 | -97.45702 | 28361 ft | 432 kts | 127° |
| 2026-04-22 10:31 | 17.44202 | -97.43170 | 27786 ft | 430 kts | 126° |
| 2026-04-22 10:31 | 17.42521 | -97.40584 | 27207 ft | 427 kts | 125° |
| 2026-04-22 10:31 | 17.40853 | -97.38032 | 26647 ft | 422 kts | 125° |
| 2026-04-22 10:32 | 17.39201 | -97.35510 | 26106 ft | 417 kts | 125° |
| 2026-04-22 10:32 | 17.37572 | -97.33019 | 25549 ft | 412 kts | 124° |
| 2026-04-22 10:32 | 17.35959 | -97.30560 | 24998 ft | 407 kts | 124° |
| 2026-04-22 10:32 | 17.34361 | -97.28124 | 24463 ft | 403 kts | 124° |
| 2026-04-22 10:33 | 17.32783 | -97.25721 | 23931 ft | 399 kts | 124° |
| 2026-04-22 10:33 | 17.31217 | -97.23334 | 23408 ft | 395 kts | 124° |
| 2026-04-22 10:33 | 17.29666 | -97.20972 | 22878 ft | 392 kts | 124° |
| 2026-04-22 10:33 | 17.28124 | -97.18629 | 22363 ft | 389 kts | 124° |
| 2026-04-22 10:34 | 17.26613 | -97.16334 | 21868 ft | 387 kts | 124° |
| 2026-04-22 10:34 | 17.25094 | -97.14026 | 21355 ft | 384 kts | 124° |
| 2026-04-22 10:34 | 17.23581 | -97.11732 | 20847 ft | 382 kts | 124° |
| 2026-04-22 10:34 | 17.22077 | -97.09448 | 20342 ft | 379 kts | 124° |
| 2026-04-22 10:35 | 17.20578 | -97.07188 | 19825 ft | 377 kts | 124° |
| 2026-04-22 10:35 | 17.19051 | -97.04969 | 19316 ft | 374 kts | 124° |
| 2026-04-22 10:35 | 17.17538 | -97.02761 | 18850 ft | 371 kts | 124° |
| 2026-04-22 10:35 | 17.16038 | -97.00574 | 18312 ft | 370 kts | 124° |
| 2026-04-22 10:36 | 17.14543 | -96.98394 | 17851 ft | 367 kts | 124° |
| 2026-04-22 10:36 | 17.13060 | -96.96231 | 17370 ft | 365 kts | 124° |
| 2026-04-22 10:36 | 17.11587 | -96.94083 | 16911 ft | 362 kts | 124° |
| 2026-04-22 10:36 | 17.10123 | -96.91945 | 16380 ft | 361 kts | 124° |
| 2026-04-22 10:37 | 17.08672 | -96.89829 | 15935 ft | 357 kts | 124° |
| 2026-04-22 10:37 | 17.05799 | -96.85643 | 15027 ft | 351 kts | 124° |
| 2026-04-22 10:37 | 17.04396 | -96.83596 | 14519 ft | 348 kts | 124° |
| 2026-04-22 10:38 | 17.03009 | -96.81559 | 14074 ft | 339 kts | 122° |
| 2026-04-22 10:38 | 17.01993 | -96.79385 | 13651 ft | 329 kts | 109° |
| 2026-04-22 10:38 | 17.01279 | -96.77140 | 13230 ft | 321 kts | 107° |
| 2026-04-22 10:38 | 17.00579 | -96.74938 | 12764 ft | 316 kts | 108° |
| 2026-04-22 10:39 | 16.99887 | -96.72776 | 12349 ft | 311 kts | 108° |
| 2026-04-22 10:39 | 16.99003 | -96.70758 | 12090 ft | 301 kts | 128° |
| 2026-04-22 10:39 | 16.97381 | -96.69451 | 11955 ft | 298 kts | 158° |
| 2026-04-22 10:39 | 16.95318 | -96.69133 | 11447 ft | 309 kts | 186° |
| 2026-04-22 10:40 | 16.93217 | -96.69660 | 10912 ft | 308 kts | 197° |
| 2026-04-22 10:40 | 16.91164 | -96.70203 | 10561 ft | 303 kts | 191° |
| 2026-04-22 10:40 | 16.89090 | -96.70359 | 10207 ft | 298 kts | 174° |
| 2026-04-22 10:40 | 16.87072 | -96.70010 | 9806 ft | 298 kts | 169° |
| 2026-04-22 10:41 | 16.85007 | -96.69592 | 9369 ft | 297 kts | 169° |
| 2026-04-22 10:41 | 16.82981 | -96.69216 | 8995 ft | 293 kts | 177° |
| 2026-04-22 10:41 | 16.81065 | -96.69624 | 8819 ft | 274 kts | 208° |
| 2026-04-22 10:41 | 16.79834 | -96.70942 | 8795 ft | 240 kts | 245° |
| 2026-04-22 10:42 | 16.79700 | -96.72521 | 8538 ft | 215 kts | 285° |
| 2026-04-22 10:42 | 16.80448 | -96.73793 | 8270 ft | 196 kts | 314° |
| 2026-04-22 10:42 | 16.81339 | -96.74785 | 8203 ft | 181 kts | 316° |
| 2026-04-22 10:42 | 16.82304 | -96.75617 | 7967 ft | 180 kts | 327° |
| 2026-04-22 10:43 | 16.83421 | -96.76219 | 7764 ft | 181 kts | 342° |
| 2026-04-22 10:43 | 16.84629 | -96.76456 | 7626 ft | 173 kts | 355° |
| 2026-04-22 10:43 | 16.85830 | -96.76511 | 7435 ft | 174 kts | 2° |
| 2026-04-22 10:43 | 16.87026 | -96.76332 | 7337 ft | 175 kts | 11° |
| 2026-04-22 10:44 | 16.88217 | -96.76029 | 7293 ft | 178 kts | 14° |
| 2026-04-22 10:44 | 16.89410 | -96.75683 | 7125 ft | 184 kts | 16° |
| 2026-04-22 10:44 | 16.90648 | -96.75296 | 6901 ft | 184 kts | 15° |
| 2026-04-22 10:44 | 16.91809 | -96.74958 | 6734 ft | 160 kts | 14° |
| 2026-04-22 10:45 | 16.92829 | -96.74678 | 6440 ft | 144 kts | 14° |
| 2026-04-22 10:45 | 16.93778 | -96.74390 | 6112 ft | 140 kts | 17° |
| 2026-04-22 10:45 | 16.94715 | -96.74107 | 5871 ft | 142 kts | 15° |
| 2026-04-22 10:45 | 16.95692 | -96.73833 | 5679 ft | 149 kts | 15° |
| 2026-04-22 10:46 | 16.96692 | -96.73530 | 5486 ft | 150 kts | 15° |
| 2026-04-22 10:46 | 16.97695 | -96.73240 | 5271 ft | 148 kts | 15° |
| 2026-04-22 10:46 | 16.98670 | -96.72952 | 5052 ft | 144 kts | 15° |
| 2026-04-22 10:46 | 16.99555 | -96.72690 | 4991 ft | 118 kts | 16° |
| 2026-04-22 10:47 | 17.00175 | -96.72508 | 4985 ft | 64 kts | 16° |
| 2026-04-22 10:47 | 17.00355 | -96.72429 | 4987 ft | 2 kts | 5° |
| 2026-04-22 10:47 | 17.00358 | -96.72436 | 4987 ft | 1 kts | 304° |
| 2026-04-22 10:47 | 17.00350 | -96.72441 | 4987 ft | 2 kts | 210° |
| 2026-04-22 10:48 | 17.00309 | -96.72402 | 4987 ft | 11 kts | 111° |
| 2026-04-22 10:48 | 17.00291 | -96.72334 | 4991 ft | 8 kts | 108° |
| 2026-04-22 10:48 | 17.00271 | -96.72297 | 4993 ft | 5 kts | 145° |
| 2026-04-22 10:48 | 17.00228 | -96.72294 | 4993 ft | 9 kts | 193° |
| 2026-04-22 10:49 | 17.00163 | -96.72313 | 4993 ft | 10 kts | 194° |
| 2026-04-22 10:49 | 17.00106 | -96.72301 | 4993 ft | 9 kts | 110° |
| 2026-04-22 10:49 | 17.00098 | -96.72267 | 4993 ft | 1 kts | 105° |
| 2026-04-22 10:49 | 17.00098 | -96.72266 | 4993 ft | 0 kts | 105° |